createdAt,value
2023-01-19T00:02:15.181Z,31.85
2023-01-19T00:04:47.100Z,33.38
2023-01-19T00:07:22.244Z,29.38
2023-01-19T00:09:55.541Z,33.75
2023-01-19T00:12:28.237Z,32.55
2023-01-19T00:15:02.799Z,31.95
2023-01-19T00:17:34.920Z,30.45
2023-01-19T00:20:20.820Z,31.92
2023-01-19T00:23:11.022Z,25.85
2023-01-19T00:25:47.601Z,28.02
2023-01-19T00:28:21.678Z,30.20
2023-01-19T00:30:56.201Z,33.65
2023-01-19T00:33:28.461Z,32.83
2023-01-19T00:36:00.646Z,33.20
2023-01-19T00:38:32.908Z,32.67
2023-01-19T00:41:04.940Z,31.00
2023-01-19T00:43:34.701Z,29.77
2023-01-19T00:46:10.018Z,28.17
2023-01-19T00:48:42.579Z,28.55
2023-01-19T00:51:14.718Z,30.90
2023-01-19T00:53:47.239Z,33.13
2023-01-19T00:56:19.318Z,29.83
2023-01-19T00:58:51.984Z,29.90
2023-01-19T01:01:45.249Z,30.90
2023-01-19T01:04:19.547Z,26.67
2023-01-19T01:06:51.520Z,33.33
2023-01-19T01:09:24.507Z,35.17
2023-01-19T01:11:57.158Z,35.03
2023-01-19T01:14:29.659Z,34.97
2023-01-19T01:17:04.720Z,32.50
2023-01-19T01:19:37.681Z,42.00
2023-01-19T01:22:10.088Z,37.95
2023-01-19T01:24:42.781Z,33.00
2023-01-19T01:27:16.323Z,29.23
2023-01-19T01:29:49.660Z,30.67
2023-01-19T01:32:24.781Z,36.38
2023-01-19T01:34:57.319Z,31.27
2023-01-19T01:37:29.661Z,33.53
2023-01-19T01:40:21.868Z,41.33
2023-01-19T01:42:54.029Z,41.28
2023-01-19T01:45:35.008Z,37.15
2023-01-19T01:48:13.912Z,37.80
2023-01-19T01:51:03.828Z,33.92
2023-01-19T01:53:38.059Z,35.85
2023-01-19T01:56:17.522Z,35.40
2023-01-19T01:58:49.594Z,35.80
2023-01-19T02:01:34.164Z,36.30
2023-01-19T02:04:08.938Z,32.80
2023-01-19T02:06:53.590Z,36.65
2023-01-19T02:09:39.881Z,35.08
2023-01-19T02:12:24.199Z,35.78
2023-01-19T02:14:55.711Z,36.33
2023-01-19T02:17:27.632Z,35.58
2023-01-19T02:20:02.024Z,33.22
2023-01-19T02:22:40.959Z,38.10
2023-01-19T02:25:15.388Z,32.60
2023-01-19T02:27:47.569Z,34.70
2023-01-19T02:30:20.815Z,34.85
2023-01-19T02:32:53.049Z,40.63
2023-01-19T02:35:26.815Z,37.35
2023-01-19T02:38:00.234Z,33.65
2023-01-19T02:40:34.972Z,35.50
2023-01-19T02:43:09.560Z,36.78
2023-01-19T02:45:41.880Z,35.05
2023-01-19T02:48:14.427Z,34.42
2023-01-19T02:50:50.242Z,35.58
2023-01-19T02:53:46.274Z,36.38
2023-01-19T02:56:47.283Z,34.20
2023-01-19T02:59:31.644Z,33.75
2023-01-19T03:02:29.707Z,38.45
2023-01-19T03:05:24.205Z,38.08
2023-01-19T03:08:08.307Z,39.78
2023-01-19T03:10:49.185Z,41.10
2023-01-19T03:13:34.373Z,40.10
2023-01-19T03:16:14.773Z,41.55
2023-01-19T03:18:50.150Z,40.03
2023-01-19T03:21:25.381Z,42.95
2023-01-19T03:24:03.228Z,38.42
2023-01-19T03:26:40.857Z,41.05
2023-01-19T03:29:17.587Z,38.08
2023-01-19T03:31:52.682Z,42.15
2023-01-19T03:34:26.248Z,36.97
2023-01-19T03:37:02.088Z,45.50
2023-01-19T03:39:34.459Z,42.65
2023-01-19T03:42:09.119Z,38.95
2023-01-19T03:44:45.504Z,42.05
2023-01-19T03:47:18.219Z,48.80
2023-01-19T03:49:50.953Z,43.45
2023-01-19T03:52:32.833Z,46.85
2023-01-19T03:55:04.573Z,39.92
2023-01-19T03:57:36.335Z,46.08
2023-01-19T04:00:12.122Z,48.55
2023-01-19T04:02:43.401Z,40.72
2023-01-19T04:05:14.651Z,47.60
2023-01-19T04:07:46.065Z,49.50
2023-01-19T04:10:17.023Z,48.88
2023-01-19T04:12:48.766Z,41.72
2023-01-19T04:15:22.646Z,46.17
2023-01-19T04:17:54.538Z,45.72
2023-01-19T04:20:27.571Z,43.17
2023-01-19T04:23:02.947Z,46.05
2023-01-19T04:25:34.779Z,47.45
2023-01-19T04:28:06.921Z,46.60
2023-01-19T04:30:41.486Z,44.65
2023-01-19T04:33:13.351Z,45.97
2023-01-19T04:35:44.778Z,47.65
2023-01-19T04:38:16.495Z,45.63
2023-01-19T04:40:47.720Z,48.28
2023-01-19T04:43:19.687Z,53.90
2023-01-19T04:45:54.157Z,44.03
2023-01-19T04:48:25.787Z,48.00
2023-01-19T04:50:57.226Z,43.70
2023-01-19T04:53:29.415Z,41.92
2023-01-19T04:56:02.696Z,45.25
2023-01-19T04:58:34.980Z,41.47
2023-01-19T05:01:13.656Z,44.30
2023-01-19T05:03:45.612Z,47.33
2023-01-19T05:06:17.452Z,47.30
2023-01-19T05:08:49.390Z,45.17
2023-01-19T05:11:21.459Z,39.25
2023-01-19T05:14:00.398Z,43.40
2023-01-19T05:16:34.838Z,40.58
2023-01-19T05:19:12.433Z,47.42
2023-01-19T05:21:47.471Z,40.95
2023-01-19T05:24:20.560Z,40.90
2023-01-19T05:26:56.631Z,42.20
2023-01-19T05:29:29.130Z,40.72
2023-01-19T05:32:12.290Z,36.72
2023-01-19T05:34:45.722Z,41.35
2023-01-19T05:37:19.880Z,45.33
2023-01-19T05:39:59.155Z,48.00
2023-01-19T05:42:32.708Z,48.92
2023-01-19T05:45:05.240Z,46.28
2023-01-19T05:47:40.332Z,39.80
2023-01-19T05:50:15.136Z,43.05
2023-01-19T05:52:47.056Z,47.42
2023-01-19T05:55:19.667Z,43.92
2023-01-19T05:57:51.658Z,40.60
2023-01-19T06:00:25.245Z,41.03
2023-01-19T06:03:01.187Z,38.50
2023-01-19T06:05:34.243Z,38.28
2023-01-19T06:08:06.284Z,35.58
2023-01-19T06:10:38.808Z,37.47
2023-01-19T06:13:11.586Z,36.60
2023-01-19T06:15:48.838Z,41.03
2023-01-19T06:18:25.334Z,43.15
2023-01-19T06:20:59.229Z,39.70
2023-01-19T06:23:34.824Z,41.83
2023-01-19T06:26:07.011Z,42.40
2023-01-19T06:28:41.205Z,41.47
2023-01-19T06:31:13.398Z,39.15
2023-01-19T06:33:55.063Z,40.58
2023-01-19T06:36:27.398Z,41.50
2023-01-19T06:39:06.083Z,36.53
2023-01-19T06:44:37.947Z,36.47
2023-01-19T06:47:15.685Z,39.20
2023-01-19T06:49:51.570Z,38.42
2023-01-19T06:52:26.006Z,36.28
2023-01-19T06:54:59.075Z,41.45
2023-01-19T06:57:31.038Z,38.42
2023-01-19T07:00:05.638Z,37.55
2023-01-19T07:02:39.754Z,40.42
2023-01-19T07:05:14.898Z,41.83
2023-01-19T07:07:46.916Z,40.90
2023-01-19T07:10:18.578Z,33.63
2023-01-19T07:13:00.810Z,38.25
2023-01-19T07:15:32.422Z,39.25
2023-01-19T07:18:09.025Z,34.60
2023-01-19T07:20:47.134Z,33.80
2023-01-19T07:23:19.305Z,38.55
2023-01-19T07:25:51.942Z,34.53
2023-01-19T07:28:26.730Z,36.90
2023-01-19T07:30:59.912Z,42.45
2023-01-19T07:33:31.962Z,32.97
2023-01-19T07:36:12.501Z,37.03
2023-01-19T07:38:46.516Z,41.63
2023-01-19T07:41:20.455Z,33.80
2023-01-19T07:43:54.413Z,36.03
2023-01-19T07:46:28.409Z,35.40
2023-01-19T07:49:01.255Z,38.55
2023-01-19T07:51:37.817Z,42.28
2023-01-19T07:54:09.502Z,36.40
2023-01-19T07:56:41.793Z,31.63
2023-01-19T07:59:13.676Z,33.38
2023-01-19T08:01:46.573Z,30.75
2023-01-19T08:04:19.207Z,33.38
2023-01-19T08:06:56.077Z,39.10
2023-01-19T08:09:33.123Z,31.77
2023-01-19T08:12:04.898Z,31.63
2023-01-19T08:14:36.969Z,32.13
2023-01-19T08:17:10.001Z,33.97
2023-01-19T08:19:41.767Z,33.30
2023-01-19T08:22:15.729Z,31.33
2023-01-19T08:24:50.304Z,27.55
2023-01-19T08:27:22.330Z,27.60
2023-01-19T08:29:59.195Z,26.83
2023-01-19T08:32:38.296Z,28.63
2023-01-19T08:35:11.647Z,26.98
2023-01-19T08:37:45.808Z,26.75
2023-01-19T08:40:21.798Z,25.73
2023-01-19T08:42:58.152Z,25.60
2023-01-19T08:45:31.157Z,28.75
2023-01-19T08:48:03.013Z,26.60
2023-01-19T08:50:37.148Z,27.60
2023-01-19T08:53:13.171Z,24.35
2023-01-19T08:55:52.508Z,24.33
2023-01-19T08:58:27.862Z,23.17
2023-01-19T09:01:03.912Z,25.25
2023-01-19T09:03:35.462Z,25.67
2023-01-19T09:06:09.945Z,23.67
2023-01-19T09:08:43.997Z,25.02
2023-01-19T09:11:18.758Z,23.42
2023-01-19T09:13:50.299Z,22.65
2023-01-19T09:16:27.537Z,25.15
2023-01-19T09:18:59.923Z,24.95
2023-01-19T09:21:34.888Z,25.95
2023-01-19T09:24:10.639Z,22.52
2023-01-19T09:26:43.719Z,26.38
2023-01-19T09:29:16.372Z,21.40
2023-01-19T09:31:49.360Z,22.77
2023-01-19T09:34:23.679Z,18.20
2023-01-19T09:36:56.971Z,21.42
2023-01-19T09:39:32.444Z,22.70
2023-01-19T09:42:12.401Z,20.90
2023-01-19T09:44:48.438Z,23.77
2023-01-19T09:47:28.277Z,26.88
2023-01-19T09:50:07.039Z,24.45
2023-01-19T09:52:50.927Z,24.80
2023-01-19T09:55:29.645Z,27.63
2023-01-19T09:58:04.520Z,20.63
2023-01-19T10:00:37.137Z,20.75
2023-01-19T10:03:18.639Z,20.02
2023-01-19T10:05:56.362Z,22.52
2023-01-19T10:08:37.917Z,22.00
2023-01-19T10:11:34.496Z,25.38
2023-01-19T10:14:23.526Z,25.90
2023-01-19T10:17:09.881Z,22.50
2023-01-19T10:19:48.640Z,19.77
2023-01-19T10:22:25.711Z,22.70
2023-01-19T10:25:00.613Z,18.80
2023-01-19T10:27:38.923Z,22.35
2023-01-19T10:30:23.695Z,23.95
2023-01-19T10:32:57.427Z,23.33
2023-01-19T10:35:30.561Z,21.05
2023-01-19T10:38:06.326Z,21.27
2023-01-19T10:40:48.290Z,21.52
2023-01-19T10:44:29.358Z,20.38
2023-01-19T10:47:03.809Z,20.20
2023-01-19T10:49:43.317Z,17.73
2023-01-19T10:52:29.423Z,20.63
2023-01-19T10:55:03.287Z,18.98
2023-01-19T10:57:54.080Z,21.50
2023-01-19T11:00:39.195Z,26.50
2023-01-19T11:03:27.385Z,33.38
2023-01-19T11:06:22.441Z,22.88
2023-01-19T11:08:56.803Z,19.75
2023-01-19T11:11:29.207Z,22.15
2023-01-19T11:14:13.975Z,21.70
2023-01-19T11:16:56.316Z,22.35
2023-01-19T11:19:32.928Z,17.92
2023-01-19T11:22:22.220Z,18.73
2023-01-19T11:24:55.608Z,19.27
2023-01-19T11:27:29.316Z,19.80
2023-01-19T11:30:10.844Z,20.77
2023-01-19T11:32:49.518Z,19.98
2023-01-19T11:35:39.372Z,17.23
2023-01-19T11:38:21.103Z,19.15
2023-01-19T11:41:13.243Z,17.85
2023-01-19T11:43:51.720Z,18.33
2023-01-19T11:46:27.831Z,21.05
2023-01-19T11:49:07.166Z,22.25
2023-01-19T11:51:47.654Z,23.55
2023-01-19T11:54:25.488Z,20.55
2023-01-19T11:57:03.926Z,21.58
2023-01-19T11:59:39.413Z,19.23
2023-01-19T12:02:24.459Z,20.35
2023-01-19T12:05:08.091Z,17.70
2023-01-19T12:07:42.727Z,17.35
2023-01-19T12:10:28.160Z,21.92
2023-01-19T12:13:02.496Z,21.02
2023-01-19T12:15:41.099Z,17.20
2023-01-19T12:18:21.961Z,19.65
2023-01-19T12:20:59.165Z,18.90
2023-01-19T12:23:47.534Z,18.77
2023-01-19T12:26:38.401Z,22.20
2023-01-19T12:29:17.059Z,16.98
2023-01-19T12:32:26.794Z,20.38
2023-01-19T12:34:59.064Z,18.38
2023-01-19T12:37:46.665Z,18.00
2023-01-19T12:40:31.632Z,16.95
2023-01-19T12:43:08.895Z,20.67
2023-01-19T12:45:45.547Z,20.00
2023-01-19T12:48:29.037Z,22.15
2023-01-19T12:51:05.653Z,24.10
2023-01-19T12:53:40.053Z,21.17
2023-01-19T12:56:12.736Z,23.25
2023-01-19T12:58:52.122Z,23.77
2023-01-19T13:01:25.349Z,18.25
2023-01-19T13:04:09.458Z,18.45
2023-01-19T13:07:18.346Z,17.55
2023-01-19T13:09:52.855Z,20.63
2023-01-19T13:12:27.708Z,18.23
2023-01-19T13:15:31.750Z,16.45
2023-01-19T13:18:06.500Z,20.38
2023-01-19T13:20:50.393Z,22.80
2023-01-19T13:23:30.490Z,21.27
2023-01-19T13:26:10.985Z,19.25
2023-01-19T13:28:47.121Z,22.55
2023-01-19T13:31:23.250Z,24.73
2023-01-19T13:33:59.506Z,20.20
2023-01-19T13:36:36.747Z,18.45
2023-01-19T13:39:19.506Z,23.00
2023-01-19T13:42:05.620Z,22.90
2023-01-19T13:44:48.299Z,26.17
2023-01-19T13:47:26.436Z,22.65
2023-01-19T13:50:10.064Z,24.98
2023-01-19T13:52:49.020Z,25.80
2023-01-19T13:55:21.332Z,28.90
2023-01-19T13:57:58.283Z,25.38
2023-01-19T14:00:33.604Z,24.90
2023-01-19T14:03:25.097Z,28.63
2023-01-19T14:12:14.968Z,25.63
2023-01-19T14:14:52.266Z,27.60
2023-01-19T14:17:29.798Z,30.73
2023-01-19T14:20:05.775Z,30.70
2023-01-19T14:22:43.451Z,29.88
2023-01-19T14:25:34.034Z,25.17
2023-01-19T14:28:30.842Z,29.58
2023-01-19T14:31:06.937Z,26.45
2023-01-19T14:33:44.109Z,27.73
2023-01-19T14:36:29.520Z,31.67
2023-01-19T14:39:04.078Z,29.13
2023-01-19T14:41:47.154Z,26.58
2023-01-19T14:44:26.804Z,26.70
2023-01-19T14:47:01.879Z,30.02
2023-01-19T14:49:41.600Z,31.42
2023-01-19T14:52:27.769Z,31.70
2023-01-19T14:55:04.178Z,28.95
2023-01-19T14:57:40.480Z,28.40
2023-01-19T15:00:26.661Z,27.48
2023-01-19T15:03:00.786Z,27.23
2023-01-19T15:05:32.790Z,31.70
2023-01-19T15:08:06.253Z,32.33
2023-01-19T15:10:41.985Z,29.98
2023-01-19T15:13:22.249Z,32.30
2023-01-19T15:15:54.741Z,31.77
2023-01-19T15:18:31.165Z,29.08
2023-01-19T15:21:06.118Z,31.80
2023-01-19T15:23:37.481Z,32.78
2023-01-19T15:26:10.744Z,30.38
2023-01-19T15:28:42.200Z,29.88
2023-01-19T15:31:18.807Z,31.17
2023-01-19T15:33:53.488Z,32.20
2023-01-19T15:36:27.093Z,33.72
2023-01-19T15:38:58.648Z,33.03
2023-01-19T15:41:33.309Z,30.42
2023-01-19T15:44:05.726Z,31.15
2023-01-19T15:46:38.280Z,30.70
2023-01-19T15:49:12.442Z,31.55
2023-01-19T15:51:44.034Z,33.08
2023-01-19T15:54:17.491Z,33.72
2023-01-19T15:56:53.097Z,29.08
2023-01-19T15:59:24.528Z,33.47
2023-01-19T16:01:58.013Z,34.85
2023-01-19T16:04:32.686Z,29.05
2023-01-19T16:07:05.090Z,31.55
2023-01-19T16:09:37.024Z,36.50
2023-01-19T16:12:09.527Z,34.42
2023-01-19T16:14:41.075Z,31.55
2023-01-19T16:17:17.960Z,33.88
2023-01-19T16:19:52.307Z,31.45
2023-01-19T16:22:27.184Z,29.33
2023-01-19T16:24:59.442Z,32.08
2023-01-19T16:27:32.242Z,31.08
2023-01-19T16:30:06.052Z,32.17
2023-01-19T16:32:38.865Z,34.10
2023-01-19T16:35:16.997Z,37.60
2023-01-19T16:37:54.319Z,34.30
2023-01-19T16:40:26.611Z,36.97
2023-01-19T16:42:58.923Z,33.63
2023-01-19T16:45:32.321Z,33.42
2023-01-19T16:48:04.387Z,30.77
2023-01-19T16:50:43.134Z,29.75
2023-01-19T16:53:16.853Z,37.80
2023-01-19T16:55:50.762Z,33.35
2023-01-19T16:58:23.182Z,31.40
2023-01-19T17:00:56.725Z,32.35
2023-01-19T17:03:30.326Z,33.15
2023-01-19T17:06:05.755Z,31.58
2023-01-19T17:08:38.484Z,30.40
2023-01-19T17:11:19.975Z,28.98
2023-01-19T17:13:54.312Z,28.10
2023-01-19T17:16:28.569Z,30.15
2023-01-19T17:19:03.299Z,29.30
2023-01-19T17:21:39.215Z,29.52
2023-01-19T17:24:12.614Z,27.65
2023-01-19T17:26:48.937Z,32.50
2023-01-19T17:29:22.182Z,31.50
2023-01-19T17:31:55.055Z,26.85
2023-01-19T17:34:31.577Z,28.77
2023-01-19T17:37:07.058Z,31.50
2023-01-19T17:39:43.539Z,27.85
2023-01-19T17:42:15.977Z,27.98
2023-01-19T17:45:03.223Z,32.05
2023-01-19T17:47:35.783Z,31.92
2023-01-19T17:50:08.754Z,29.58
2023-01-19T17:52:48.564Z,27.52
2023-01-19T17:55:21.164Z,28.77
2023-01-19T17:57:55.489Z,35.15
2023-01-19T18:00:28.134Z,33.58
2023-01-19T18:03:03.139Z,30.60
2023-01-19T18:05:38.035Z,28.73
2023-01-19T18:08:14.975Z,32.95
2023-01-19T18:10:50.594Z,27.92
2023-01-19T18:13:23.215Z,34.45
2023-01-19T18:15:56.010Z,31.02
2023-01-19T18:18:28.456Z,30.58
2023-01-19T18:21:03.275Z,32.05
2023-01-19T18:23:39.055Z,29.10
2023-01-19T18:26:13.895Z,31.52
2023-01-19T18:28:46.700Z,31.50
2023-01-19T18:31:21.104Z,28.92
2023-01-19T18:33:55.014Z,31.30
2023-01-19T18:36:27.732Z,28.90
2023-01-19T18:39:04.659Z,35.45
2023-01-19T18:41:41.002Z,32.92
2023-01-19T18:44:16.227Z,32.58
2023-01-19T18:47:10.809Z,31.70
2023-01-19T18:49:43.239Z,31.98
2023-01-19T18:52:16.097Z,29.25
2023-01-19T18:54:51.689Z,32.88
2023-01-19T18:57:23.905Z,32.83
2023-01-19T18:59:56.490Z,32.78
2023-01-19T19:02:37.614Z,30.58
2023-01-19T19:05:13.424Z,31.38
2023-01-19T19:07:45.888Z,27.27
2023-01-19T19:10:21.412Z,28.35
2023-01-19T19:12:53.803Z,26.40
2023-01-19T19:15:32.524Z,24.10
2023-01-19T19:18:04.707Z,26.95
2023-01-19T19:20:37.354Z,25.88
2023-01-19T19:23:13.119Z,27.45
2023-01-19T19:25:51.579Z,26.42
2023-01-19T19:28:23.977Z,29.17
2023-01-19T19:31:08.006Z,28.15
2023-01-19T19:33:41.983Z,25.45
2023-01-19T19:36:15.900Z,24.17
2023-01-19T19:38:48.318Z,28.95
2023-01-19T19:41:27.246Z,25.77
2023-01-19T19:44:02.298Z,26.88
2023-01-19T19:46:34.895Z,26.95
2023-01-19T19:49:07.361Z,27.00
2023-01-19T19:51:39.846Z,25.85
2023-01-19T19:54:15.278Z,28.23
2023-01-19T19:56:52.371Z,26.27
2023-01-19T19:59:24.449Z,28.80
2023-01-19T20:01:57.000Z,37.42
2023-01-19T20:04:29.076Z,29.88
2023-01-19T20:07:02.457Z,32.38
2023-01-19T20:09:36.038Z,29.10
2023-01-19T20:12:17.179Z,28.67
2023-01-19T20:14:52.541Z,30.13
2023-01-19T20:17:25.071Z,31.50
2023-01-19T20:19:56.886Z,30.77
2023-01-19T20:22:29.228Z,27.63
2023-01-19T20:25:00.844Z,28.88
2023-01-19T20:27:40.377Z,27.67
2023-01-19T20:30:13.903Z,30.77
2023-01-19T20:32:48.228Z,34.63
2023-01-19T20:35:19.454Z,30.30
2023-01-19T20:37:51.493Z,31.13
2023-01-19T20:40:23.123Z,28.65
2023-01-19T20:42:57.582Z,26.75
2023-01-19T20:45:32.049Z,30.40
2023-01-19T20:48:04.050Z,31.38
2023-01-19T20:50:35.566Z,30.65
2023-01-19T20:53:07.711Z,28.98
2023-01-19T20:55:39.659Z,28.33
2023-01-19T20:58:13.973Z,34.78
2023-01-19T21:00:48.101Z,32.85
2023-01-19T21:03:20.243Z,29.83
2023-01-19T21:05:52.038Z,31.15
2023-01-19T21:08:23.766Z,33.67
2023-01-19T21:10:59.608Z,27.63
2023-01-19T21:13:39.619Z,31.40
2023-01-19T21:16:12.211Z,29.75
2023-01-19T21:18:44.513Z,27.60
2023-01-19T21:21:29.378Z,26.95
2023-01-19T21:24:03.861Z,27.63
2023-01-19T21:26:36.524Z,25.15
2023-01-19T21:29:13.577Z,28.05
2023-01-19T21:31:45.695Z,28.40
2023-01-19T21:34:17.821Z,30.15
2023-01-19T21:36:49.578Z,29.38
2023-01-19T21:39:21.686Z,24.98
2023-01-19T21:41:53.632Z,26.00
2023-01-19T21:44:28.281Z,26.60
2023-01-19T21:47:00.106Z,27.45
2023-01-19T21:49:36.322Z,27.85
2023-01-19T21:52:08.900Z,26.55
2023-01-19T21:54:41.323Z,30.30
2023-01-19T21:57:15.581Z,29.75
2023-01-19T21:59:52.323Z,27.00
2023-01-19T22:02:37.923Z,24.60
2023-01-19T22:05:16.166Z,28.20
2023-01-19T22:07:48.522Z,29.42
2023-01-19T22:10:23.088Z,31.60
2023-01-19T22:13:10.863Z,29.60
2023-01-19T22:15:45.981Z,29.45
2023-01-19T22:18:18.306Z,28.70
2023-01-19T22:20:50.519Z,31.27
2023-01-19T22:23:22.352Z,30.67
2023-01-19T22:25:54.494Z,27.45
2023-01-19T22:28:29.501Z,31.83
2023-01-19T22:31:12.362Z,33.42
2023-01-19T22:33:47.823Z,29.98
2023-01-19T22:36:22.565Z,33.22
2023-01-19T22:38:56.476Z,29.48
2023-01-19T22:41:32.205Z,31.40
2023-01-19T22:44:07.780Z,28.30
2023-01-19T22:46:43.077Z,35.55
2023-01-19T22:49:17.584Z,33.60
2023-01-19T22:51:54.513Z,32.13
2023-01-19T22:54:30.236Z,31.05
2023-01-19T22:57:02.069Z,34.65
2023-01-19T22:59:39.927Z,32.10
2023-01-19T23:02:17.659Z,36.38
2023-01-19T23:04:51.256Z,35.50
2023-01-19T23:07:23.174Z,40.50
2023-01-19T23:09:55.482Z,36.95
2023-01-19T23:12:27.604Z,39.78
2023-01-19T23:15:01.257Z,38.90
2023-01-19T23:17:44.190Z,33.10
2023-01-19T23:20:18.699Z,36.70
2023-01-19T23:22:51.433Z,38.88
2023-01-19T23:25:23.701Z,36.33
2023-01-19T23:27:56.428Z,33.97
2023-01-19T23:30:28.674Z,39.58
2023-01-19T23:33:06.342Z,36.15
2023-01-19T23:36:05.441Z,36.20
2023-01-19T23:38:38.202Z,38.42
2023-01-19T23:41:10.844Z,40.00
2023-01-19T23:43:43.444Z,41.22
2023-01-19T23:46:16.819Z,39.60
2023-01-19T23:48:54.061Z,34.65
2023-01-19T23:51:29.472Z,42.17
2023-01-19T23:54:03.078Z,36.72
2023-01-19T23:56:36.985Z,38.95
2023-01-19T23:59:36.781Z,35.85
